Flight Track Log - Related Links

Times and Time Zones

All times are in EDT time to prevent confusion due to time zone crossing. See the UCA5011 flight status page for this flight to view local times or setup timezone preferences in your user account.


Time Position Orientation Groundspeed Altitude Reporting Facility
EDT Latitude Longitude Course Direction KTS MPH feet Rate Location/Type
Fri 08:41:00 AM 38.9060 -77.8016 261° West  Level Estimated
Fri 08:42:00 AM 38.8976 -77.8699 261° West  Level Estimated
Fri 08:43:00 AM 38.8892 -77.9382 261° West  Level Estimated
Fri 08:44:00 AM 38.8807 -78.0064 261° West  Level Estimated
Fri 08:45:00 AM 38.8722 -78.0747 261° West  Level Estimated
Fri 08:46:00 AM 38.8636 -78.1429 261° West  Level Estimated
Fri 08:47:00 AM 38.8550 -78.2111 261° West  Level Estimated
Fri 08:48:00 AM 38.8464 -78.2793 261° West  Level Estimated
Fri 08:49:00 AM 38.8377 -78.3474 261° West  Level Estimated
Fri 08:50:00 AM 38.8290 -78.4156 261° West  Level Estimated
Fri 08:51:00 AM 38.8202 -78.4837 261° West  Level Estimated
Fri 08:52:00 AM 38.8114 -78.5518 261° West  Level Estimated
Fri 08:53:00 AM 38.8026 -78.6199 261° West  Level Estimated
Fri 08:54:00 AM 38.7937 -78.6880 261° West  Level Estimated
Fri 08:55:00 AM 38.7848 -78.7561 260° West  Level Estimated
Fri 08:56:00 AM 38.7758 -78.8242 260° West  Level Estimated
Fri 08:57:00 AM 38.7669 -78.8922 260° West  Level Estimated
Fri 08:58:00 AM 38.7578 -78.9602 260° West  Level Estimated
Fri 08:59:00 AM 38.7488 -79.0282 260° West  Level Estimated
Fri 09:00:00 AM 38.7397 -79.0962 260° West  Level Estimated
Fri 09:01:00 AM 38.7305 -79.1642 260° West  Level Estimated
Fri 09:02:00 AM 38.7213 -79.2321 260° West  Level Estimated
Fri 09:03:00 AM 38.7121 -79.3000 260° West  Level Estimated
Fri 09:04:00 AM 38.7028 -79.3680 260° West  Level Estimated
Fri 09:05:00 AM 38.6935 -79.4359 260° West  Level Estimated
Fri 09:06:00 AM 38.6842 -79.5037 260° West  Level Estimated
Fri 09:07:00 AM 38.6748 -79.5716 260° West  Level Estimated
Fri 09:08:00 AM 38.6653 -79.6394 260° West  Level Estimated
Fri 09:09:00 AM 38.6559 -79.7073 260° West  Level Estimated
Fri 09:10:00 AM 38.6464 -79.7751 260° West  Level Estimated
Fri 09:11:00 AM 38.6368 -79.8429 260° West  Level Estimated
Fri 09:12:00 AM 38.6272 -79.9106 260° West  Level Estimated
Fri 09:13:00 AM 38.6176 -79.9784 260° West  Level Estimated
Fri 09:14:00 AM 38.6080 -80.0461 260° West  Level Estimated
Fri 09:15:00 AM 38.5983 -80.1138 260° West  Level Estimated
Fri 09:16:00 AM 38.5885 -80.1815 260° West  Level Estimated
Fri 09:17:00 AM 38.5787 -80.2492 260° West  Level Estimated
Fri 09:18:00 AM 38.5689 -80.3169 260° West  Level Estimated
Fri 09:19:00 AM 38.5591 -80.3845 259° West  Level Estimated
Fri 09:20:00 AM 38.5492 -80.4521 259° West  Level Estimated
Fri 09:21:00 AM 38.5392 -80.5198 259° West  Level Estimated
Fri 09:22:00 AM 38.5293 -80.5873 259° West  Level Estimated
Fri 09:23:00 AM 38.5192 -80.6549 259° West  Level Estimated
Fri 09:24:00 AM 38.5092 -80.7225 259° West  Level Estimated
Fri 09:25:00 AM 38.4991 -80.7900 259° West  Level Estimated
Fri 09:26:00 AM 38.4890 -80.8575 259° West  Level Estimated
Fri 09:27:00 AM 38.4788 -80.9250 259° West  Level Estimated
Fri 09:28:00 AM 38.4686 -80.9925 259° West  Level Estimated
Fri 09:29:00 AM 38.4584 -81.0599 259° West  Level Estimated
Fri 09:30:00 AM 38.4481 -81.1273 259° West  Level Estimated
Fri 09:31:00 AM 38.4378 -81.1948 259° West  Level Estimated
Fri 09:32:00 AM 38.4274 -81.2622 259° West  Level Estimated
Fri 09:33:00 AM 38.4170 -81.3296 259° West  Level Estimated
Fri 09:34:00 AM 38.4066 -81.3969 259° West  Level Estimated

Login

Don't have an account? Register now (free) for customized features, flight alerts, and more!